createdAt,value
2018-01-12T00:01:57.401Z,2.90
2018-01-12T00:04:25.025Z,2.60
2018-01-12T00:06:52.698Z,2.90
2018-01-12T00:09:20.321Z,2.90
2018-01-12T00:11:48.186Z,2.90
2018-01-12T00:14:15.805Z,2.60
2018-01-12T00:16:43.702Z,2.80
2018-01-12T00:19:11.466Z,2.80
2018-01-12T00:21:39.141Z,2.90
2018-01-12T00:24:06.989Z,2.90
2018-01-12T00:26:34.754Z,2.90
2018-01-12T00:29:02.422Z,2.90
2018-01-12T00:31:30.078Z,2.70
2018-01-12T00:33:57.694Z,2.60
2018-01-12T00:36:25.503Z,2.90
2018-01-12T00:38:53.198Z,2.70
2018-01-12T00:41:20.838Z,2.60
2018-01-12T00:43:50.038Z,2.90
2018-01-12T00:46:18.537Z,2.60
2018-01-12T00:48:46.215Z,2.60
2018-01-12T00:51:13.894Z,2.80
2018-01-12T00:53:41.544Z,2.80
2018-01-12T00:56:09.222Z,2.80
2018-01-12T00:58:36.860Z,2.80
2018-01-12T01:01:04.518Z,2.80
2018-01-12T01:03:32.770Z,2.80
2018-01-12T01:06:01.837Z,2.80
2018-01-12T01:08:29.472Z,2.50
2018-01-12T01:10:57.283Z,2.80
2018-01-12T01:13:25.709Z,2.70
2018-01-12T01:15:53.683Z,2.50
2018-01-12T01:18:21.900Z,2.70
2018-01-12T01:20:49.524Z,2.50
2018-01-12T01:23:17.612Z,2.70
2018-01-12T01:25:45.935Z,2.80
2018-01-12T01:28:13.589Z,2.90
2018-01-12T01:30:41.262Z,2.40
2018-01-12T01:33:08.877Z,2.60
2018-01-12T01:35:36.532Z,2.30
2018-01-12T01:38:05.125Z,2.60
2018-01-12T01:40:33.526Z,2.60
2018-01-12T01:43:01.322Z,2.40
2018-01-12T01:45:28.974Z,2.30
2018-01-12T01:47:56.596Z,2.60
2018-01-12T01:50:24.255Z,2.30
2018-01-12T01:52:52.644Z,2.70
2018-01-12T01:55:21.094Z,2.50
2018-01-12T01:57:48.721Z,2.20
2018-01-12T02:00:16.376Z,2.30
2018-01-12T02:02:43.990Z,2.60
2018-01-12T02:05:12.478Z,2.00
2018-01-12T02:07:40.179Z,2.30
2018-01-12T02:10:07.796Z,2.00
2018-01-12T02:12:35.520Z,2.50
2018-01-12T02:15:03.138Z,2.00
2018-01-12T02:17:30.924Z,2.00
2018-01-12T02:19:58.621Z,2.60
2018-01-12T02:22:26.287Z,2.00
2018-01-12T02:24:53.909Z,2.00
2018-01-12T02:27:21.526Z,2.00
2018-01-12T02:29:49.181Z,2.10
2018-01-12T02:32:16.832Z,2.20
2018-01-12T02:34:45.253Z,2.00
2018-01-12T02:37:12.918Z,2.30
2018-01-12T02:39:40.790Z,2.20
2018-01-12T02:42:08.449Z,2.20
2018-01-12T02:44:36.113Z,2.30
2018-01-12T02:47:03.726Z,2.30
2018-01-12T02:49:32.147Z,2.30
2018-01-12T02:51:59.802Z,2.20
2018-01-12T02:54:27.426Z,2.30
2018-01-12T02:56:55.377Z,2.60
2018-01-12T02:59:23.803Z,2.20
2018-01-12T03:01:52.097Z,2.40
2018-01-12T03:04:19.956Z,2.30
2018-01-12T03:06:47.628Z,2.50
2018-01-12T03:09:15.393Z,2.60
2018-01-12T03:11:43.015Z,2.60
2018-01-12T03:14:10.669Z,2.20
2018-01-12T03:16:38.373Z,2.00
2018-01-12T03:19:06.025Z,2.00
2018-01-12T03:21:33.645Z,2.00
2018-01-12T03:24:01.837Z,2.00
2018-01-12T03:26:29.507Z,2.60
2018-01-12T03:28:57.408Z,2.20
2018-01-12T03:31:25.187Z,2.10
2018-01-12T03:33:53.056Z,2.60
2018-01-12T03:36:20.697Z,2.20
2018-01-12T03:38:48.317Z,2.00
2018-01-12T03:41:16.006Z,2.30
2018-01-12T03:43:43.621Z,2.00
2018-01-12T03:46:11.277Z,2.00
2018-01-12T03:48:38.928Z,2.00
2018-01-12T03:51:06.581Z,2.10
2018-01-12T03:53:34.202Z,2.00
2018-01-12T03:56:01.965Z,2.00
2018-01-12T03:58:29.625Z,2.00
2018-01-12T04:00:57.511Z,2.60
2018-01-12T04:03:25.328Z,2.00
2018-01-12T04:05:52.995Z,2.60
2018-01-12T04:08:20.621Z,2.00
2018-01-12T04:10:49.085Z,2.60
2018-01-12T04:13:17.453Z,2.20
2018-01-12T04:15:45.106Z,2.60
2018-01-12T04:18:13.537Z,2.00
2018-01-12T04:20:41.193Z,2.30
2018-01-12T04:23:08.812Z,2.00
2018-01-12T04:25:36.470Z,2.00
2018-01-12T04:28:04.850Z,2.20
2018-01-12T04:30:32.506Z,2.40
2018-01-12T04:33:00.174Z,2.50
2018-01-12T04:35:27.796Z,2.60
2018-01-12T04:37:56.000Z,2.60
2018-01-12T04:40:24.446Z,2.50
2018-01-12T04:42:52.074Z,2.00
2018-01-12T04:45:20.330Z,2.20
2018-01-12T04:47:48.713Z,2.60
2018-01-12T04:50:16.410Z,2.40
2018-01-12T04:52:44.045Z,2.10
2018-01-12T04:55:11.693Z,2.60
2018-01-12T04:57:40.121Z,2.60
2018-01-12T05:00:07.825Z,2.40
2018-01-12T05:02:36.575Z,2.00
2018-01-12T05:05:04.234Z,2.40
2018-01-12T05:07:32.493Z,2.30
2018-01-12T05:10:00.160Z,2.00
2018-01-12T05:12:27.921Z,2.00
2018-01-12T05:14:55.538Z,2.60
2018-01-12T05:17:23.857Z,2.00
2018-01-12T05:19:52.073Z,2.60
2018-01-12T05:22:20.463Z,2.00
2018-01-12T05:24:48.886Z,2.10
2018-01-12T05:27:16.550Z,2.40
2018-01-12T05:29:44.850Z,2.00
2018-01-12T05:32:13.181Z,2.10
2018-01-12T05:34:41.081Z,2.00
2018-01-12T05:37:09.420Z,2.30
2018-01-12T05:39:37.075Z,2.30
2018-01-12T05:42:04.763Z,2.40
2018-01-12T05:44:32.431Z,2.10
2018-01-12T05:47:00.224Z,2.00
2018-01-12T05:49:27.882Z,2.30
2018-01-12T05:51:55.549Z,2.10
2018-01-12T05:54:23.192Z,1.90
2018-01-12T05:56:50.817Z,2.00
2018-01-12T05:59:18.482Z,2.10
2018-01-12T06:01:57.937Z,1.90
2018-01-12T06:04:37.593Z,2.00
2018-01-12T06:07:05.250Z,2.00
2018-01-12T06:09:32.874Z,2.10
2018-01-12T06:12:00.537Z,2.30
2018-01-12T06:14:28.157Z,1.90
2018-01-12T06:16:55.778Z,2.00
2018-01-12T06:19:23.552Z,2.00
2018-01-12T06:21:51.169Z,2.00
2018-01-12T06:24:18.817Z,2.00
2018-01-12T06:26:46.436Z,2.00
2018-01-12T06:29:14.818Z,2.00
2018-01-12T06:31:42.499Z,2.00
2018-01-12T06:34:10.121Z,2.00
2018-01-12T06:36:37.792Z,1.90
2018-01-12T06:39:05.733Z,1.90
2018-01-12T06:41:33.349Z,2.30
2018-01-12T06:44:01.009Z,1.90
2018-01-12T06:46:28.716Z,2.00
2018-01-12T06:48:56.477Z,2.00
2018-01-12T06:51:24.093Z,2.10
2018-01-12T06:53:53.136Z,2.30
2018-01-12T06:56:20.916Z,2.00
2018-01-12T06:58:48.540Z,2.00
2018-01-12T07:01:16.211Z,2.10
2018-01-12T07:03:43.833Z,2.00
2018-01-12T07:06:11.450Z,2.00
2018-01-12T07:08:39.894Z,2.00
2018-01-12T07:11:07.513Z,2.10
2018-01-12T07:13:36.605Z,1.90
2018-01-12T07:16:04.301Z,2.40
2018-01-12T07:18:31.925Z,2.00
2018-01-12T07:21:11.359Z,2.00
2018-01-12T07:23:46.881Z,2.10
2018-01-12T07:26:14.541Z,2.00
2018-01-12T07:28:42.191Z,2.00
2018-01-12T07:31:11.093Z,1.90
2018-01-12T07:33:38.754Z,2.10
2018-01-12T07:36:07.111Z,2.30
2018-01-12T07:38:34.788Z,2.30
2018-01-12T07:41:02.414Z,2.00
2018-01-12T07:43:30.088Z,2.30
2018-01-12T07:45:57.711Z,2.00
2018-01-12T07:48:25.381Z,2.40
2018-01-12T07:50:53.066Z,2.00
2018-01-12T07:53:21.553Z,2.00
2018-01-12T07:55:49.176Z,2.00
2018-01-12T07:58:16.875Z,2.30
2018-01-12T08:00:50.137Z,2.30
2018-01-12T08:03:17.761Z,2.00
2018-01-12T08:05:45.414Z,2.00
2018-01-12T08:08:13.561Z,1.90
2018-01-12T08:10:41.243Z,2.00
2018-01-12T08:13:09.628Z,2.30
2018-01-12T08:15:38.250Z,2.40
2018-01-12T08:18:05.949Z,2.30
2018-01-12T08:20:33.722Z,2.30
2018-01-12T08:23:02.882Z,2.30
2018-01-12T08:25:31.402Z,2.40
2018-01-12T08:27:59.085Z,2.40
2018-01-12T08:30:26.923Z,2.40
2018-01-12T08:32:56.673Z,2.40
2018-01-12T08:35:24.289Z,2.00
2018-01-12T08:37:52.017Z,2.30
2018-01-12T08:40:21.049Z,2.40
2018-01-12T08:42:49.529Z,2.40
2018-01-12T08:45:17.493Z,2.40
2018-01-12T08:47:45.155Z,2.30
2018-01-12T08:50:12.781Z,2.60
2018-01-12T08:52:40.464Z,2.60
2018-01-12T08:55:09.122Z,2.60
2018-01-12T08:57:38.286Z,2.60
2018-01-12T09:00:06.881Z,2.60
2018-01-12T09:02:34.510Z,2.30
2018-01-12T09:05:02.390Z,2.50
2018-01-12T09:07:32.274Z,2.60
2018-01-12T09:09:59.893Z,2.40
2018-01-12T09:12:28.989Z,2.70
2018-01-12T09:14:56.704Z,2.40
2018-01-12T09:17:48.014Z,2.60
2018-01-12T09:20:19.005Z,2.60
2018-01-12T09:22:49.364Z,2.70
2018-01-12T09:25:25.606Z,2.40
2018-01-12T09:27:54.241Z,2.60
2018-01-12T09:30:22.668Z,2.40
2018-01-12T09:32:52.175Z,2.30
2018-01-12T09:35:20.445Z,2.60
2018-01-12T09:37:59.729Z,2.60
2018-01-12T09:40:37.771Z,2.50
2018-01-12T09:43:05.393Z,2.40
2018-01-12T09:45:33.862Z,2.40
2018-01-12T09:48:13.189Z,2.50
2018-01-12T09:50:42.778Z,2.40
2018-01-12T09:53:10.398Z,2.60
2018-01-12T09:55:38.054Z,2.10
2018-01-12T09:58:05.714Z,2.50
2018-01-12T10:00:40.231Z,2.40
2018-01-12T10:03:07.856Z,2.10
2018-01-12T10:05:35.492Z,2.40
2018-01-12T10:08:06.006Z,2.40
2018-01-12T10:10:35.684Z,2.60
2018-01-12T10:13:03.353Z,2.60
2018-01-12T10:15:31.511Z,2.60
2018-01-12T10:18:03.660Z,2.30
2018-01-12T10:20:36.029Z,2.30
2018-01-12T10:23:04.466Z,2.50
2018-01-12T10:25:32.110Z,2.60
2018-01-12T10:27:59.774Z,2.60
2018-01-12T10:31:03.695Z,2.20
2018-01-12T10:33:32.277Z,2.30
2018-01-12T10:36:00.645Z,2.60
2018-01-12T10:38:28.265Z,2.60
2018-01-12T10:41:14.108Z,2.30
2018-01-12T10:43:41.769Z,2.60
2018-01-12T10:46:29.341Z,2.30
2018-01-12T10:48:57.700Z,2.60
2018-01-12T10:51:42.173Z,2.60
2018-01-12T10:54:09.828Z,2.30
2018-01-12T10:56:38.208Z,2.70
2018-01-12T10:59:05.902Z,2.50
2018-01-12T11:01:33.888Z,2.60
2018-01-12T11:04:01.673Z,2.30
2018-01-12T11:06:29.346Z,2.60
2018-01-12T11:08:57.199Z,2.60
2018-01-12T11:11:25.769Z,2.60
2018-01-12T11:13:53.472Z,2.30
2018-01-12T11:16:21.408Z,2.60
2018-01-12T11:18:49.073Z,2.60
2018-01-12T11:21:16.744Z,2.20
2018-01-12T11:23:45.161Z,2.50
2018-01-12T11:26:13.073Z,2.60
2018-01-12T11:28:41.055Z,2.60
2018-01-12T11:31:10.201Z,2.40
2018-01-12T11:33:37.857Z,2.30
2018-01-12T11:36:05.535Z,2.20
2018-01-12T11:38:33.421Z,2.30
2018-01-12T11:41:01.077Z,2.60
2018-01-12T11:43:28.733Z,2.10
2018-01-12T11:45:56.394Z,2.30
2018-01-12T11:48:24.072Z,2.60
2018-01-12T11:50:51.706Z,2.30
2018-01-12T11:53:19.325Z,2.60
2018-01-12T11:55:46.996Z,2.70
2018-01-12T11:58:14.658Z,2.50
2018-01-12T12:00:43.117Z,2.30
2018-01-12T12:03:10.790Z,2.60
2018-01-12T12:05:38.406Z,2.30
2018-01-12T12:08:06.349Z,2.50
2018-01-12T12:10:34.990Z,2.80
2018-01-12T12:13:03.410Z,2.30
2018-01-12T12:15:31.041Z,2.70
2018-01-12T12:17:58.699Z,2.50
2018-01-12T12:20:26.323Z,2.60
2018-01-12T12:22:54.160Z,2.60
2018-01-12T12:25:21.773Z,2.60
2018-01-12T12:27:49.429Z,2.70
2018-01-12T12:30:17.049Z,2.60
2018-01-12T12:32:44.816Z,2.60
2018-01-12T12:35:12.438Z,2.20
2018-01-12T12:37:40.104Z,2.20
2018-01-12T12:40:07.765Z,2.20
2018-01-12T12:42:35.425Z,2.70
2018-01-12T12:45:03.089Z,2.70
2018-01-12T12:47:30.754Z,2.50
2018-01-12T12:49:58.369Z,2.60
2018-01-12T12:52:26.029Z,2.20
2018-01-12T12:54:54.414Z,2.60
2018-01-12T12:57:22.838Z,2.30
2018-01-12T12:59:50.831Z,2.50
2018-01-12T13:02:18.452Z,2.20
2018-01-12T13:04:46.123Z,2.20
2018-01-12T13:07:14.061Z,2.30
2018-01-12T13:09:41.683Z,2.60
2018-01-12T13:12:09.349Z,2.60
2018-01-12T13:14:37.093Z,2.30
2018-01-12T13:17:05.557Z,2.60
2018-01-12T13:19:33.320Z,2.20
2018-01-12T13:22:00.937Z,2.20
2018-01-12T13:24:28.762Z,2.40
2018-01-12T13:26:56.383Z,2.30
2018-01-12T13:29:24.037Z,2.20
2018-01-12T13:31:51.652Z,2.60
2018-01-12T13:34:19.309Z,2.20
2018-01-12T13:36:46.990Z,2.30
2018-01-12T13:39:15.408Z,2.60
2018-01-12T13:41:43.330Z,2.40
2018-01-12T13:44:11.068Z,2.20
2018-01-12T13:46:38.776Z,2.40
2018-01-12T13:49:06.682Z,2.40
2018-01-12T13:51:34.338Z,2.10
2018-01-12T13:54:02.317Z,2.00
2018-01-12T13:56:29.985Z,2.20
2018-01-12T13:58:57.648Z,2.10
2018-01-12T14:01:26.770Z,2.40
2018-01-12T14:03:55.196Z,2.20
2018-01-12T14:06:22.861Z,2.40
2018-01-12T14:08:50.715Z,2.60
2018-01-12T14:11:18.383Z,2.20
2018-01-12T14:13:46.612Z,2.10
2018-01-12T14:16:14.825Z,2.00
2018-01-12T14:18:42.500Z,2.30
2018-01-12T14:21:10.157Z,2.60
2018-01-12T14:23:38.509Z,2.60
2018-01-12T14:26:06.214Z,2.00
2018-01-12T14:28:33.866Z,2.60
2018-01-12T14:31:01.486Z,2.00
2018-01-12T14:33:29.145Z,2.00
2018-01-12T14:35:57.370Z,2.00
2018-01-12T14:38:25.567Z,2.00
2018-01-12T14:40:53.489Z,2.60
2018-01-12T14:43:21.109Z,2.00
2018-01-12T14:45:48.735Z,2.40
2018-01-12T14:48:16.731Z,1.90
2018-01-12T14:50:45.165Z,2.00
2018-01-12T14:53:12.789Z,2.20
2018-01-12T14:55:40.449Z,2.00
2018-01-12T14:58:08.109Z,2.00
2018-01-12T15:00:35.726Z,2.00
2018-01-12T15:03:04.901Z,2.10
2018-01-12T15:05:32.521Z,2.00
2018-01-12T15:08:00.328Z,2.10
2018-01-12T15:10:28.557Z,2.30
2018-01-12T15:12:56.184Z,2.40
2018-01-12T15:15:24.050Z,2.10
2018-01-12T15:17:51.670Z,2.10
2018-01-12T15:20:19.326Z,2.00
2018-01-12T15:22:46.945Z,2.00
2018-01-12T15:25:15.363Z,2.10
2018-01-12T15:27:43.745Z,2.40
2018-01-12T15:30:11.400Z,2.10
2018-01-12T15:32:39.073Z,2.00
2018-01-12T15:35:06.690Z,2.10
2018-01-12T15:37:34.354Z,2.00
2018-01-12T15:40:02.009Z,2.10
2018-01-12T15:42:29.942Z,1.90
2018-01-12T15:44:57.606Z,2.10
2018-01-12T15:47:25.262Z,2.00
2018-01-12T15:49:52.910Z,2.00
2018-01-12T15:52:20.572Z,2.00
2018-01-12T15:54:48.981Z,1.90
2018-01-12T15:57:16.597Z,1.90
2018-01-12T15:59:44.358Z,2.30
2018-01-12T16:02:12.049Z,1.90
2018-01-12T16:04:39.799Z,2.00
2018-01-12T16:07:07.453Z,2.00
2018-01-12T16:09:35.074Z,2.00
2018-01-12T16:12:02.737Z,2.30
2018-01-12T16:14:30.389Z,2.00
2018-01-12T16:16:58.014Z,2.10
2018-01-12T16:19:25.843Z,1.90
2018-01-12T16:21:53.465Z,2.30
2018-01-12T16:24:21.429Z,2.20
2018-01-12T16:26:49.425Z,2.00
2018-01-12T16:29:17.136Z,2.00
2018-01-12T16:31:44.765Z,2.00
2018-01-12T16:34:12.418Z,2.20
2018-01-12T16:36:40.033Z,2.00
2018-01-12T16:39:07.716Z,2.00
2018-01-12T16:41:35.396Z,1.90
2018-01-12T16:44:03.068Z,2.30
2018-01-12T16:46:30.689Z,2.30
2018-01-12T16:48:58.353Z,1.90
2018-01-12T16:51:25.965Z,1.90
2018-01-12T16:53:53.822Z,2.30
2018-01-12T16:56:21.493Z,2.30
2018-01-12T16:58:50.048Z,2.30
2018-01-12T17:01:18.002Z,1.80
2018-01-12T17:03:45.628Z,2.20
2018-01-12T17:06:13.512Z,2.30
2018-01-12T17:08:41.125Z,2.10
2018-01-12T17:11:09.706Z,2.30
2018-01-12T17:13:37.397Z,2.00
2018-01-12T17:16:05.076Z,2.10
2018-01-12T17:18:32.701Z,2.00
2018-01-12T17:21:00.635Z,2.00
2018-01-12T17:23:29.297Z,2.00
2018-01-12T17:25:56.917Z,2.00
2018-01-12T17:28:25.346Z,1.70
2018-01-12T17:30:53.061Z,1.90
2018-01-12T17:33:21.490Z,1.80
2018-01-12T17:35:49.133Z,2.00
2018-01-12T17:38:17.744Z,1.90
2018-01-12T17:40:45.409Z,1.90
2018-01-12T17:43:13.082Z,1.70
2018-01-12T17:45:40.842Z,1.90
2018-01-12T17:48:08.513Z,1.90
2018-01-12T17:50:40.978Z,1.70
2018-01-12T17:53:09.867Z,2.20
2018-01-12T17:55:38.718Z,1.90
2018-01-12T17:58:07.163Z,1.90
2018-01-12T18:00:34.816Z,2.20
2018-01-12T18:03:03.256Z,2.00
2018-01-12T18:05:30.934Z,2.20
2018-01-12T18:07:58.592Z,1.90
2018-01-12T18:10:27.759Z,2.10
2018-01-12T18:12:55.436Z,2.10
2018-01-12T18:15:23.082Z,1.90
2018-01-12T18:17:50.749Z,1.90
2018-01-12T18:20:18.401Z,2.20
2018-01-12T18:22:46.941Z,1.90
2018-01-12T18:25:14.609Z,2.10
2018-01-12T18:27:43.335Z,2.00
2018-01-12T18:30:11.006Z,1.90
2018-01-12T18:32:39.461Z,2.30
2018-01-12T18:35:07.982Z,1.80
2018-01-12T18:37:35.993Z,2.10
2018-01-12T18:40:03.674Z,2.00
2018-01-12T18:42:31.457Z,1.80
2018-01-12T18:44:59.687Z,1.90
2018-01-12T18:47:27.336Z,2.20
2018-01-12T18:49:54.949Z,1.90
2018-01-12T18:52:22.577Z,1.60
2018-01-12T18:54:50.236Z,1.70
2018-01-12T18:57:17.849Z,2.00
2018-01-12T18:59:45.513Z,1.80
2018-01-12T19:02:14.293Z,1.70
2018-01-12T19:04:42.141Z,2.20
2018-01-12T19:07:10.679Z,2.20
2018-01-12T19:09:38.342Z,1.80
2018-01-12T19:12:05.971Z,2.20
2018-01-12T19:14:33.620Z,1.90
2018-01-12T19:17:01.289Z,2.10
2018-01-12T19:19:28.944Z,1.70
2018-01-12T19:21:56.602Z,1.80
2018-01-12T19:24:24.720Z,1.60
2018-01-12T19:26:52.630Z,1.70
2018-01-12T19:29:20.245Z,1.60
2018-01-12T19:31:47.904Z,1.70
2018-01-12T19:34:16.117Z,1.60
2018-01-12T19:36:43.729Z,1.60
2018-01-12T19:39:11.355Z,1.70
2018-01-12T19:41:39.018Z,1.70
2018-01-12T19:44:06.746Z,1.70
2018-01-12T19:46:34.733Z,1.60
2018-01-12T19:49:02.345Z,1.70
2018-01-12T19:51:29.996Z,1.40
2018-01-12T19:53:57.953Z,1.60
2018-01-12T19:56:25.609Z,1.50
2018-01-12T19:58:53.564Z,1.40
2018-01-12T20:01:21.394Z,1.40
2018-01-12T20:03:49.008Z,1.40
2018-01-12T20:06:16.834Z,1.40
2018-01-12T20:08:44.458Z,1.40
2018-01-12T20:11:12.840Z,1.50
2018-01-12T20:13:40.737Z,1.30
2018-01-12T20:16:08.584Z,1.80
2018-01-12T20:18:37.860Z,1.40
2018-01-12T20:21:05.497Z,1.60
2018-01-12T20:23:33.152Z,1.50
2018-01-12T20:26:02.458Z,1.40
2018-01-12T20:28:30.126Z,1.70
2018-01-12T20:30:57.741Z,1.70
2018-01-12T20:33:25.411Z,1.70
2018-01-12T20:35:53.797Z,1.20
2018-01-12T20:38:21.470Z,1.60
2018-01-12T20:40:49.852Z,1.30
2018-01-12T20:43:18.246Z,1.60
2018-01-12T20:45:45.953Z,1.30
2018-01-12T20:48:13.606Z,1.50
2018-01-12T20:50:41.222Z,1.70
2018-01-12T20:53:08.892Z,1.40
2018-01-12T20:55:36.542Z,1.40
2018-01-12T20:58:04.637Z,1.40
2018-01-12T21:00:32.777Z,1.40
2018-01-12T21:03:00.408Z,1.40
2018-01-12T21:05:29.212Z,1.70
2018-01-12T21:07:56.876Z,1.70
2018-01-12T21:10:24.501Z,1.40
2018-01-12T21:12:52.148Z,1.90
2018-01-12T21:15:19.808Z,1.70
2018-01-12T21:17:47.425Z,1.40
2018-01-12T21:20:15.949Z,1.70
2018-01-12T21:22:43.599Z,1.40
2018-01-12T21:25:11.473Z,1.40
2018-01-12T21:27:39.096Z,1.40
2018-01-12T21:30:06.915Z,1.80
2018-01-12T21:32:34.533Z,1.50
2018-01-12T21:35:02.201Z,1.40
2018-01-12T21:37:29.995Z,1.60
2018-01-12T21:39:58.337Z,1.50
2018-01-12T21:42:25.957Z,1.90
2018-01-12T21:44:53.625Z,1.40
2018-01-12T21:47:21.253Z,1.40
2018-01-12T21:49:48.921Z,1.40
2018-01-12T21:52:16.735Z,1.40
2018-01-12T21:54:44.390Z,1.40
2018-01-12T21:57:12.025Z,1.40
2018-01-12T21:59:40.450Z,1.70
2018-01-12T22:02:08.069Z,1.90
2018-01-12T22:04:35.723Z,1.90
2018-01-12T22:07:03.341Z,1.50
2018-01-12T22:09:30.995Z,1.60
2018-01-12T22:11:58.609Z,1.60
2018-01-12T22:14:27.032Z,1.90
2018-01-12T22:16:55.477Z,1.90
2018-01-12T22:19:23.093Z,1.90
2018-01-12T22:21:50.753Z,1.90
2018-01-12T22:24:18.433Z,1.70
2018-01-12T22:26:46.086Z,2.00
2018-01-12T22:29:13.701Z,1.90
2018-01-12T22:31:42.272Z,1.70
2018-01-12T22:34:09.888Z,1.60
2018-01-12T22:36:37.553Z,1.60
2018-01-12T22:39:05.187Z,1.70
2018-01-12T22:41:33.904Z,1.60
2018-01-12T22:44:02.290Z,2.00
2018-01-12T22:46:30.706Z,1.60
2018-01-12T22:48:58.373Z,1.80
2018-01-12T22:51:25.984Z,1.60
2018-01-12T22:53:54.407Z,1.70
2018-01-12T22:56:22.030Z,1.90
2018-01-12T22:58:50.465Z,1.80
2018-01-12T23:01:18.084Z,1.90
2018-01-12T23:03:45.746Z,1.90
2018-01-12T23:06:13.364Z,1.60
2018-01-12T23:08:41.029Z,1.60
2018-01-12T23:11:08.650Z,1.70
2018-01-12T23:13:36.272Z,1.60
2018-01-12T23:16:04.705Z,1.70
2018-01-12T23:18:32.393Z,1.80
2018-01-12T23:21:00.783Z,1.80
2018-01-12T23:23:29.203Z,1.90
2018-01-12T23:25:56.820Z,1.80
2018-01-12T23:28:25.246Z,1.90
2018-01-12T23:30:52.861Z,1.80
2018-01-12T23:33:21.279Z,1.50
2018-01-12T23:35:48.945Z,1.90
2018-01-12T23:38:16.569Z,1.90
2018-01-12T23:40:44.417Z,1.90
2018-01-12T23:43:12.832Z,1.80
2018-01-12T23:45:40.509Z,1.80
2018-01-12T23:48:08.162Z,1.70
2018-01-12T23:50:37.733Z,1.60
2018-01-12T23:53:06.062Z,1.80
2018-01-12T23:55:33.711Z,1.60
2018-01-12T23:58:02.118Z,1.60
